Time;durP1;ratioP1;P1;durP2;ratioP2;P2;SDS_P1;SDS_P2;PMS_P1;PMS_P2;Temp;Humidity;BMP_temperature;BMP_pressure;BME280_temperature;BME280_humidity;BME280_pressure;Samples;Min_cycle;Max_cycle;Signal;HPM_P1;HPM_P2
2022/06/11 00:00:28;;;;;;;3.63;1.15;;;19.30;47.90;;;;;;5005667;28;20359;-73
2022/06/11 00:02:55;;;;;;;3.63;1.17;;;19.30;47.30;;;;;;5003502;28;20026;-73
2022/06/11 00:05:21;;;;;;;8.05;2.00;;;19.30;47.00;;;;;;5007440;28;20412;-74
2022/06/11 00:07:49;;;;;;;4.35;1.80;;;19.30;47.30;;;;;;5009675;28;20109;-73
2022/06/11 00:10:16;;;;;;;2.75;1.60;;;19.30;47.10;;;;;;5002868;28;20575;-72
2022/06/11 00:12:43;;;;;;;4.00;1.73;;;19.30;46.60;;;;;;5011400;28;20054;-76
2022/06/11 00:15:10;;;;;;;2.85;1.67;;;19.20;46.30;;;;;;5005546;28;20038;-72
2022/06/11 00:17:36;;;;;;;12.38;1.77;;;19.30;46.10;;;;;;5003241;28;20030;-72
2022/06/11 00:20:05;;;;;;;5.35;1.80;;;19.30;46.40;;;;;;5007010;28;20045;-75
2022/06/11 00:22:31;;;;;;;1.75;1.55;;;19.30;46.10;;;;;;5001201;28;20704;-74
2022/06/11 00:24:58;;;;;;;3.60;1.38;;;19.30;45.90;;;;;;4999279;28;20034;-71
2022/06/11 00:27:25;;;;;;;4.80;1.58;;;19.30;45.70;;;;;;5000181;28;20489;-74
2022/06/11 00:29:52;;;;;;;3.20;1.98;;;19.30;45.90;;;;;;5001672;28;20062;-71
2022/06/11 00:32:19;;;;;;;3.40;1.27;;;19.30;46.00;;;;;;5003396;28;20114;-72
2022/06/11 00:34:46;;;;;;;4.97;1.30;;;19.40;45.10;;;;;;4998662;28;20023;-71
2022/06/11 00:37:16;;;;;;;2.90;1.33;;;19.40;45.60;;;;;;5018629;28;20042;-76
2022/06/11 00:39:44;;;;;;;7.28;1.88;;;19.40;45.80;;;;;;5021447;28;20546;-73
2022/06/11 00:42:24;;;;;;;3.38;1.48;;;19.40;46.00;;;;;;5003317;28;20543;-73
2022/06/11 00:45:12;;;;;;;3.97;1.70;;;19.40;45.40;;;;;;5003952;28;20117;-74
2022/06/11 00:47:39;;;;;;;3.10;1.55;;;19.40;45.70;;;;;;5010621;28;20121;-74
2022/06/11 00:50:18;;;;;;;3.55;1.25;;;19.40;45.50;;;;;;5014352;28;20138;-74
2022/06/11 00:52:47;;;;;;;1.77;1.38;;;19.40;45.30;;;;;;5017358;28;20055;-73
2022/06/11 00:55:28;;;;;;;3.90;1.45;;;19.40;45.40;;;;;;5025561;28;20030;-72
2022/06/11 00:58:05;;;;;;;7.75;2.00;;;19.40;45.60;;;;;;5009916;28;20022;-72
2022/06/11 01:00:42;;;;;;;2.78;1.55;;;19.40;44.90;;;;;;5005310;28;20054;-73
2022/06/11 01:03:10;;;;;;;2.15;1.38;;;19.40;45.50;;;;;;4999302;28;20384;-74
2022/06/11 01:05:41;;;;;;;1.52;1.05;;;19.40;45.50;;;;;;5000234;28;20121;-73
2022/06/11 01:08:20;;;;;;;2.75;1.45;;;19.40;45.40;;;;;;5006804;28;20032;-73
2022/06/11 01:10:55;;;;;;;2.47;1.13;;;19.40;45.30;;;;;;5005051;28;20034;-74
2022/06/11 01:13:43;;;;;;;4.10;1.20;;;19.40;44.80;;;;;;5013480;28;20057;-73
2022/06/11 01:16:17;;;;;;;4.45;2.08;;;19.50;45.00;;;;;;5000890;28;20408;-73
2022/06/11 01:18:54;;;;;;;5.03;2.20;;;19.40;44.80;;;;;;5004468;28;20030;-73
2022/06/11 01:21:23;;;;;;;10.43;1.90;;;19.40;45.60;;;;;;5000706;28;20018;-73
2022/06/11 01:24:01;;;;;;;8.38;1.67;;;19.40;46.10;;;;;;5002780;28;20030;-74
2022/06/11 01:26:41;;;;;;;27.73;2.80;;;19.40;47.30;;;;;;5019477;28;20050;-73
2022/06/11 01:29:46;;;;;;;14.50;1.73;;;19.40;48.30;;;;;;4996224;28;20066;-74
2022/06/11 01:32:34;;;;;;;10.40;1.83;;;19.40;48.10;;;;;;5001510;28;20042;-73
2022/06/11 01:35:12;;;;;;;6.75;2.20;;;19.40;48.20;;;;;;4995626;28;20050;-74
2022/06/11 01:38:07;;;;;;;12.35;1.75;;;19.40;47.90;;;;;;5000395;28;20120;-75
2022/06/11 01:40:49;;;;;;;5.90;1.50;;;19.40;47.70;;;;;;5017461;28;20038;-74
2022/06/11 01:43:31;;;;;;;6.63;1.55;;;19.40;47.00;;;;;;5000564;28;20022;-74
2022/06/11 01:46:01;;;;;;;9.40;1.65;;;19.30;46.70;;;;;;5002896;28;20083;-74
2022/06/11 01:48:29;;;;;;;4.97;1.63;;;19.30;46.70;;;;;;5006090;28;20022;-73
2022/06/11 01:51:21;;;;;;;13.93;2.28;;;19.30;46.20;;;;;;5000953;28;20397;-73
2022/06/11 01:54:17;;;;;;;13.45;1.75;;;19.20;46.40;;;;;;5012801;28;20034;-75
2022/06/11 01:56:56;;;;;;;6.13;1.35;;;19.20;45.80;;;;;;4995778;28;20030;-73
2022/06/11 01:59:43;;;;;;;7.38;2.30;;;19.20;45.60;;;;;;5013298;28;20026;-73
2022/06/11 02:02:37;;;;;;;10.43;1.60;;;19.20;45.70;;;;;;5003842;28;20058;-73
2022/06/11 02:05:37;;;;;;;8.52;1.70;;;19.20;45.30;;;;;;5002684;28;20385;-75
2022/06/11 02:08:19;;;;;;;9.05;1.83;;;19.20;45.50;;;;;;5013061;28;20438;-74
2022/06/11 02:11:04;;;;;;;6.93;1.05;;;19.20;45.40;;;;;;5000866;28;20020;-74
2022/06/11 02:13:32;;;;;;;5.32;1.45;;;19.20;45.60;;;;;;5023576;28;20025;-73
2022/06/11 02:16:35;;;;;;;3.17;1.33;;;19.20;45.60;;;;;;5000959;28;20157;-73
2022/06/11 02:19:07;;;;;;;2.03;1.65;;;19.20;45.80;;;;;;4999197;28;20038;-74
2022/06/11 02:21:38;;;;;;;2.22;1.35;;;19.20;46.00;;;;;;5016241;28;20031;-72
2022/06/11 02:24:15;;;;;;;4.10;1.33;;;19.20;45.80;;;;;;5008205;28;20434;-72
2022/06/11 02:26:45;;;;;;;2.05;1.25;;;19.10;45.90;;;;;;5001228;28;20054;-74
2022/06/11 02:29:17;;;;;;;5.03;1.85;;;19.20;45.90;;;;;;4996472;28;20426;-73
2022/06/11 02:31:48;;;;;;;6.40;1.65;;;19.20;45.90;;;;;;5006613;28;20410;-74
2022/06/11 02:34:16;;;;;;;10.27;1.90;;;19.20;45.80;;;;;;5004838;28;20030;-74
2022/06/11 02:36:58;;;;;;;7.25;1.45;;;19.20;45.70;;;;;;5010697;28;20026;-74
2022/06/11 02:39:26;;;;;;;1.95;1.48;;;19.20;45.90;;;;;;5000415;28;20038;-73
2022/06/11 02:42:32;;;;;;;2.58;1.58;;;19.20;45.70;;;;;;5000027;28;20103;-73
2022/06/11 02:45:38;;;;;;;3.70;1.38;;;19.20;45.80;;;;;;4996072;28;20034;-73
2022/06/11 02:48:44;;;;;;;2.25;1.27;;;19.20;45.60;;;;;;5002155;28;20106;-73
2022/06/11 02:51:50;;;;;;;2.17;1.48;;;19.20;45.80;;;;;;4998853;28;20034;-74
2022/06/11 02:54:57;;;;;;;2.28;1.30;;;19.30;45.60;;;;;;5029840;28;20058;-73
2022/06/11 02:58:03;;;;;;;2.95;1.83;;;19.30;45.30;;;;;;5003767;28;20463;-74
2022/06/11 03:01:09;;;;;;;2.13;1.83;;;19.30;45.10;;;;;;5001359;28;20101;-74
2022/06/11 03:03:45;;;;;;;5.05;1.40;;;19.30;45.20;;;;;;5020184;28;20041;-74
2022/06/11 03:06:12;;;;;;;4.43;1.52;;;19.30;45.20;;;;;;5007583;28;20121;-73
2022/06/11 03:08:40;;;;;;;10.70;2.67;;;19.30;44.90;;;;;;5002775;28;20746;-74
2022/06/11 03:11:06;;;;;;;7.05;1.83;;;19.30;45.50;;;;;;5016066;28;20504;-74
2022/06/11 03:13:33;;;;;;;3.28;1.50;;;19.30;44.90;;;;;;5019821;28;20405;-75
2022/06/11 03:15:59;;;;;;;4.78;2.05;;;19.30;44.50;;;;;;5000213;28;20030;-74
2022/06/11 03:18:26;;;;;;;5.57;1.77;;;19.30;44.70;;;;;;5001112;28;20033;-73
2022/06/11 03:20:53;;;;;;;4.18;1.60;;;19.40;43.90;;;;;;5005687;28;20030;-74
2022/06/11 03:23:21;;;;;;;4.18;2.38;;;19.40;44.30;;;;;;5003642;28;20034;-74
2022/06/11 03:25:48;;;;;;;2.03;1.70;;;19.40;44.40;;;;;;5005141;28;20081;-74
2022/06/11 03:28:20;;;;;;;23.88;2.17;;;19.40;44.80;;;;;;5003861;28;20031;-74
2022/06/11 03:30:47;;;;;;;11.93;2.35;;;19.40;44.70;;;;;;5008835;28;20415;-74
2022/06/11 03:33:14;;;;;;;7.90;1.92;;;19.30;45.30;;;;;;5005190;28;20057;-73
2022/06/11 03:35:41;;;;;;;14.27;2.08;;;19.40;44.90;;;;;;5001493;28;20138;-73
2022/06/11 03:38:08;;;;;;;10.00;2.58;;;19.40;45.00;;;;;;4996965;28;20041;-73
2022/06/11 03:40:35;;;;;;;9.38;2.33;;;19.40;45.40;;;;;;5012013;28;20030;-73
2022/06/11 03:43:02;;;;;;;36.28;28.95;;;19.40;45.70;;;;;;5022006;28;20028;-72
2022/06/11 03:45:29;;;;;;;48.80;28.45;;;19.40;45.60;;;;;;5003050;28;20086;-75
2022/06/11 03:47:56;;;;;;;25.10;16.33;;;19.40;45.60;;;;;;5001263;28;20034;-73
2022/06/11 03:50:26;;;;;;;10.38;8.60;;;19.40;45.70;;;;;;5012848;28;20031;-74
2022/06/11 03:52:53;;;;;;;16.52;7.78;;;19.40;44.60;;;;;;5036116;28;20026;-73
2022/06/11 03:55:21;;;;;;;16.70;5.80;;;19.40;43.50;;;;;;4993883;28;20427;-74
2022/06/11 03:57:48;;;;;;;7.53;4.88;;;19.40;44.00;;;;;;5004075;28;20022;-74
2022/06/11 04:01:14;;;;;;;7.85;3.17;;;19.30;43.60;;;;;;5000689;28;20062;-74
2022/06/11 04:03:04;;;;;;;7.53;3.05;;;19.30;43.90;;;;;;5014071;28;20068;-75
2022/06/11 04:05:31;;;;;;;4.45;3.10;;;19.30;44.20;;;;;;5002333;28;20054;-74
2022/06/11 04:07:58;;;;;;;3.70;2.65;;;19.30;44.30;;;;;;5011623;28;20042;-74
2022/06/11 04:10:24;;;;;;;6.72;2.78;;;19.30;44.10;;;;;;5009561;28;20049;-74
2022/06/11 04:12:52;;;;;;;8.38;2.92;;;19.30;44.40;;;;;;5005303;28;20024;-74
2022/06/11 04:15:19;;;;;;;9.02;2.88;;;19.20;44.40;;;;;;4996098;28;20053;-72
2022/06/11 04:17:45;;;;;;;6.95;2.50;;;19.20;44.40;;;;;;5018369;28;20034;-72
2022/06/11 04:20:13;;;;;;;4.95;2.55;;;19.20;43.90;;;;;;4999548;28;20037;-71
2022/06/11 04:22:40;;;;;;;3.42;2.17;;;19.20;44.00;;;;;;5003268;28;20449;-72
2022/06/11 04:25:07;;;;;;;6.57;2.78;;;19.10;44.00;;;;;;5006237;28;20060;-72
2022/06/11 04:27:34;;;;;;;2.90;2.13;;;19.10;43.80;;;;;;5001253;28;20434;-74
2022/06/11 04:30:00;;;;;;;6.00;2.42;;;19.10;44.00;;;;;;5019196;28;20048;-74
2022/06/11 04:32:28;;;;;;;6.15;1.70;;;19.10;44.20;;;;;;5014268;28;20026;-73
2022/06/11 04:34:56;;;;;;;6.38;2.03;;;19.00;44.50;;;;;;5007613;28;20060;-70
2022/06/11 04:37:25;;;;;;;14.48;3.10;;;19.00;44.70;;;;;;5020428;28;20482;-73
2022/06/11 04:39:54;;;;;;;40.00;26.85;;;19.00;45.10;;;;;;5008509;28;20026;-75
2022/06/11 04:42:23;;;;;;;44.20;21.10;;;19.00;45.70;;;;;;5003034;28;20072;-74
2022/06/11 04:44:50;;;;;;;28.63;16.25;;;19.00;46.40;;;;;;5030067;28;20028;-74
2022/06/11 04:47:21;;;;;;;23.95;11.15;;;19.00;46.70;;;;;;5002372;28;20436;-73
2022/06/11 04:49:49;;;;;;;22.83;9.65;;;19.00;45.90;;;;;;5000861;28;20026;-73
2022/06/11 04:52:16;;;;;;;12.88;7.95;;;19.00;46.10;;;;;;5000411;28;20477;-73
2022/06/11 04:54:43;;;;;;;15.35;6.40;;;18.90;45.90;;;;;;5015274;28;20373;-74
2022/06/11 04:57:09;;;;;;;15.68;5.47;;;18.90;46.00;;;;;;5019048;28;20040;-75
2022/06/11 04:59:36;;;;;;;9.10;4.72;;;18.90;46.00;;;;;;5004611;28;20480;-76
2022/06/11 05:02:04;;;;;;;27.42;10.00;;;18.90;46.00;;;;;;5004085;28;20034;-72
2022/06/11 05:04:31;;;;;;;17.50;11.95;;;18.80;46.50;;;;;;5010969;28;20033;-74
2022/06/11 05:06:57;;;;;;;21.10;12.23;;;18.90;47.60;;;;;;4993704;28;20073;-74
2022/06/11 05:09:31;;;;;;;19.27;9.65;;;18.90;47.50;;;;;;5014951;28;20038;-73
2022/06/11 05:11:57;;;;;;;9.68;7.35;;;18.90;48.00;;;;;;5017540;28;20120;-73
2022/06/11 05:14:24;;;;;;;11.57;6.43;;;18.90;47.80;;;;;;4997870;28;20033;-73
2022/06/11 05:16:51;;;;;;;10.23;6.25;;;18.80;47.50;;;;;;5000089;28;20041;-73
2022/06/11 05:19:20;;;;;;;9.77;4.78;;;18.80;47.30;;;;;;4997393;28;20034;-74
2022/06/11 05:21:48;;;;;;;8.75;3.88;;;18.80;47.20;;;;;;5007342;28;20042;-73
2022/06/11 05:24:15;;;;;;;5.90;3.78;;;18.70;47.00;;;;;;5000291;28;20434;-72
2022/06/11 05:26:55;;;;;;;20.90;5.32;;;18.70;46.90;;;;;;5002094;28;20472;-74
2022/06/11 05:29:47;;;;;;;28.92;5.10;;;18.70;46.30;;;;;;5004588;28;20080;-75
2022/06/11 05:32:16;;;;;;;12.27;8.05;;;18.70;47.90;;;;;;4997186;28;20025;-74
2022/06/11 05:34:44;;;;;;;20.75;9.15;;;18.70;49.20;;;;;;5007947;28;20024;-71
2022/06/11 05:37:11;;;;;;;15.35;7.63;;;18.80;49.50;;;;;;4999333;28;20378;-74
2022/06/11 05:39:39;;;;;;;10.60;6.78;;;18.80;49.50;;;;;;5000021;28;20074;-71
2022/06/11 05:42:06;;;;;;;9.23;4.75;;;18.80;49.00;;;;;;4992370;28;20034;-74
2022/06/11 05:44:33;;;;;;;11.27;4.72;;;18.80;48.40;;;;;;4997488;28;20027;-73
2022/06/11 05:46:59;;;;;;;5.97;4.28;;;18.70;47.90;;;;;;5015653;28;20093;-73
2022/06/11 05:49:32;;;;;;;10.15;3.97;;;18.70;47.60;;;;;;5025492;28;20030;-73
2022/06/11 05:52:02;;;;;;;11.00;3.53;;;18.60;47.20;;;;;;4996806;28;20072;-73
2022/06/11 05:54:32;;;;;;;12.82;3.13;;;18.60;46.90;;;;;;4998316;28;20022;-74
2022/06/11 05:57:00;;;;;;;13.73;3.63;;;18.70;47.00;;;;;;5000573;28;20041;-73
2022/06/11 05:59:32;;;;;;;7.63;2.53;;;18.60;47.10;;;;;;4998875;28;20509;-73
2022/06/11 06:02:01;;;;;;;3.33;2.97;;;18.60;46.90;;;;;;4997742;28;20733;-73
2022/06/11 06:04:27;;;;;;;7.05;2.80;;;18.60;47.20;;;;;;4997829;28;20026;-74
2022/06/11 06:06:54;;;;;;;3.45;2.50;;;18.60;47.30;;;;;;5022191;28;20390;-73
2022/06/11 06:09:20;;;;;;;7.63;2.33;;;18.60;47.20;;;;;;4985692;28;20443;-73
2022/06/11 06:11:47;;;;;;;2.72;2.05;;;18.70;47.10;;;;;;5021306;28;20607;-73
2022/06/11 06:14:13;;;;;;;10.27;3.03;;;18.60;46.30;;;;;;5000512;28;20091;-73
2022/06/11 06:16:40;;;;;;;9.43;2.78;;;18.70;46.60;;;;;;5034080;28;20041;-73
2022/06/11 06:19:06;;;;;;;10.10;2.30;;;18.70;46.40;;;;;;4998876;28;20030;-73
2022/06/11 06:21:34;;;;;;;3.83;2.22;;;18.80;46.50;;;;;;5005569;28;20039;-73
2022/06/11 06:24:01;;;;;;;4.43;2.85;;;18.80;46.30;;;;;;5000462;28;20703;-73
2022/06/11 06:26:28;;;;;;;2.80;2.25;;;18.80;46.10;;;;;;4981139;28;20522;-73
2022/06/11 06:28:54;;;;;;;5.20;2.53;;;18.80;46.30;;;;;;5006128;28;20030;-73
2022/06/11 06:31:21;;;;;;;2.58;2.30;;;18.90;46.20;;;;;;5008102;28;20053;-73
2022/06/11 06:33:48;;;;;;;5.75;2.30;;;18.90;46.60;;;;;;5013999;28;20048;-74
2022/06/11 06:36:15;;;;;;;3.72;2.70;;;18.90;46.00;;;;;;5006681;28;20381;-73
2022/06/11 06:38:42;;;;;;;4.75;2.40;;;19.00;46.00;;;;;;5007463;28;20022;-73
2022/06/11 06:41:09;;;;;;;4.07;2.72;;;19.00;46.00;;;;;;5006936;28;20030;-75
2022/06/11 06:43:36;;;;;;;7.00;2.50;;;19.00;46.00;;;;;;5004877;28;20077;-73
2022/06/11 06:46:03;;;;;;;4.70;2.30;;;19.10;46.20;;;;;;5011002;28;20775;-73
2022/06/11 06:48:30;;;;;;;9.05;3.88;;;19.00;46.20;;;;;;5007687;28;20121;-73
2022/06/11 06:50:58;;;;;;;3.75;2.15;;;19.10;46.50;;;;;;5001846;28;20469;-73
2022/06/11 06:53:26;;;;;;;11.70;3.38;;;19.10;46.10;;;;;;5039173;28;20022;-73
2022/06/11 06:55:53;;;;;;;5.78;2.65;;;19.10;45.40;;;;;;5007045;28;20159;-73
2022/06/11 06:58:20;;;;;;;3.72;2.00;;;19.10;45.20;;;;;;4997640;28;20022;-73
2022/06/11 07:00:47;;;;;;;6.90;2.60;;;19.20;45.00;;;;;;5010051;28;20396;-73
2022/06/11 07:03:14;;;;;;;8.05;2.58;;;19.20;44.20;;;;;;5010874;28;20034;-73
2022/06/11 07:05:42;;;;;;;6.82;2.30;;;19.20;44.40;;;;;;5014378;28;20026;-73
2022/06/11 07:08:10;;;;;;;8.10;2.60;;;19.20;44.30;;;;;;5008741;28;20553;-73
2022/06/11 07:10:36;;;;;;;6.78;1.92;;;19.20;44.50;;;;;;5020035;28;20113;-73
2022/06/11 07:13:03;;;;;;;9.13;3.78;;;19.20;43.90;;;;;;5006716;28;20490;-73
2022/06/11 07:15:30;;;;;;;10.13;2.80;;;19.20;43.80;;;;;;5005831;28;20030;-73
2022/06/11 07:18:13;;;;;;;7.47;3.97;;;19.20;43.50;;;;;;5005469;28;20473;-73
2022/06/11 07:20:42;;;;;;;7.47;2.95;;;19.30;43.60;;;;;;5000550;28;20034;-73
2022/06/11 07:23:35;;;;;;;9.52;3.05;;;19.30;43.70;;;;;;4999911;28;20045;-73
2022/06/11 07:26:08;;;;;;;7.75;2.28;;;19.40;43.90;;;;;;5012797;28;20118;-72
2022/06/11 07:28:38;;;;;;;6.82;3.42;;;19.40;43.90;;;;;;5002835;28;20034;-73
2022/06/11 07:31:05;;;;;;;10.68;3.17;;;19.50;43.90;;;;;;5002396;28;20030;-73
2022/06/11 07:33:31;;;;;;;9.18;2.70;;;19.50;43.40;;;;;;5010383;28;20030;-72
2022/06/11 07:35:58;;;;;;;6.80;2.67;;;19.50;43.60;;;;;;5004249;28;20093;-73
2022/06/11 07:38:25;;;;;;;6.57;2.67;;;19.60;43.60;;;;;;5001542;28;20026;-73
2022/06/11 07:40:52;;;;;;;7.10;3.47;;;19.70;43.70;;;;;;5006686;28;20033;-73
2022/06/11 07:43:18;;;;;;;6.43;3.17;;;19.70;43.40;;;;;;5003805;28;20113;-73
2022/06/11 07:45:46;;;;;;;7.45;3.72;;;19.70;43.20;;;;;;5010117;28;20030;-73
2022/06/11 07:48:13;;;;;;;3.38;3.08;;;19.80;43.10;;;;;;5022930;28;20037;-73
2022/06/11 07:50:43;;;;;;;9.13;3.10;;;19.90;43.10;;;;;;4997259;28;20450;-73
2022/06/11 07:53:10;;;;;;;6.25;2.50;;;19.90;42.80;;;;;;5034597;28;20568;-74
2022/06/11 07:55:38;;;;;;;4.65;3.10;;;20.00;42.70;;;;;;5003048;28;20034;-73
2022/06/11 07:58:07;;;;;;;8.75;2.55;;;20.00;42.60;;;;;;4999982;28;20082;-73
2022/06/11 08:00:38;;;;;;;15.98;4.82;;;20.10;42.40;;;;;;5000141;28;20030;-73
2022/06/11 08:03:05;;;;;;;15.25;2.83;;;20.10;42.50;;;;;;5005367;28;20069;-73
2022/06/11 08:05:33;;;;;;;8.05;2.85;;;20.20;43.00;;;;;;4999832;28;20026;-73
2022/06/11 08:08:00;;;;;;;7.53;5.00;;;20.30;43.10;;;;;;4999774;28;20979;-73
2022/06/11 08:10:28;;;;;;;6.50;2.63;;;20.40;43.10;;;;;;5001182;28;20026;-73
2022/06/11 08:12:54;;;;;;;4.95;2.70;;;20.40;43.10;;;;;;5002679;28;20144;-73
2022/06/11 08:15:21;;;;;;;8.05;2.55;;;20.50;42.90;;;;;;5000725;28;20030;-73
2022/06/11 08:17:48;;;;;;;11.43;3.35;;;20.60;42.80;;;;;;5002041;28;20500;-74
2022/06/11 08:20:20;;;;;;;11.05;2.85;;;20.60;42.40;;;;;;4994700;28;20022;-73
2022/06/11 08:22:46;;;;;;;11.18;3.13;;;20.70;42.20;;;;;;5002265;28;20025;-74
2022/06/11 08:25:13;;;;;;;10.48;4.13;;;20.70;42.10;;;;;;5002430;28;20034;-73
2022/06/11 08:27:39;;;;;;;17.95;3.10;;;20.80;41.80;;;;;;5000698;28;20055;-73
2022/06/11 08:30:07;;;;;;;9.52;3.28;;;20.90;41.40;;;;;;5027924;28;20035;-74
2022/06/11 08:32:34;;;;;;;14.05;4.68;;;20.90;41.30;;;;;;4997211;28;20378;-73
2022/06/11 08:35:00;;;;;;;19.65;3.67;;;20.90;41.70;;;;;;5003180;28;20041;-73
2022/06/11 08:37:27;;;;;;;10.73;3.92;;;21.00;41.30;;;;;;4980617;28;20456;-73
2022/06/11 08:39:53;;;;;;;19.58;3.80;;;21.10;40.80;;;;;;5002501;28;20121;-73
2022/06/11 08:42:41;;;;;;;18.73;5.38;;;21.10;40.50;;;;;;5013744;28;20048;-73
2022/06/11 08:45:24;;;;;;;11.85;4.13;;;21.10;40.90;;;;;;5004040;28;20027;-74
2022/06/11 08:47:55;;;;;;;17.23;3.75;;;21.20;41.00;;;;;;5011991;28;20039;-74
2022/06/11 08:50:31;;;;;;;16.98;4.18;;;21.20;40.90;;;;;;4994670;28;20039;-74
2022/06/11 08:52:57;;;;;;;15.77;3.47;;;21.30;41.10;;;;;;5029348;28;20039;-74
2022/06/11 08:55:28;;;;;;;13.40;3.70;;;21.30;41.10;;;;;;4999110;28;20019;-74
2022/06/11 08:57:57;;;;;;;18.17;4.38;;;21.30;40.90;;;;;;4997035;28;20033;-73
2022/06/11 09:00:57;;;;;;;8.02;3.10;;;21.40;40.60;;;;;;4997357;28;20031;-73
2022/06/11 09:03:55;;;;;;;10.55;3.28;;;21.40;40.20;;;;;;5007269;28;20674;-73
2022/06/11 09:07:00;;;;;;;13.27;3.40;;;21.40;39.80;;;;;;5021222;28;20080;-73
2022/06/11 09:09:36;;;;;;;14.80;4.25;;;21.50;39.50;;;;;;5002029;28;20030;-74
2022/06/11 09:12:28;;;;;;;11.60;3.78;;;21.50;39.50;;;;;;5002566;28;20487;-73
2022/06/11 09:15:33;;;;;;;6.88;4.10;;;21.60;39.10;;;;;;5010513;28;20040;-73
2022/06/11 09:18:00;;;;;;;;;;;21.70;39.30;;;;;;5006372;28;20125;-74
2022/06/11 09:20:44;;;;;;;11.95;3.47;;;21.80;38.90;;;;;;5011063;28;19906;-74
2022/06/11 09:23:40;;;;;;;7.50;2.80;;;21.80;39.00;;;;;;4999298;28;20603;-75
2022/06/11 09:26:06;;;;;;;20.13;6.25;;;21.90;38.20;;;;;;5022068;28;20058;-72
2022/06/11 09:29:08;;;;;;;25.58;4.45;;;21.90;38.50;;;;;;5017577;28;20041;-70
2022/06/11 09:31:48;;;;;;;17.08;4.25;;;22.00;38.70;;;;;;4968186;28;20031;-75
2022/06/11 09:34:24;;;;;;;17.55;4.93;;;22.00;38.20;;;;;;4996905;28;20101;-74
2022/06/11 09:37:14;;;;;;;18.75;4.40;;;22.20;37.30;;;;;;5009073;28;20034;-72
2022/06/11 09:40:02;;;;;;;47.38;6.72;;;22.30;34.70;;;;;;5011420;28;20038;-72
2022/06/11 09:42:47;;;;;;;113.80;14.63;;;22.80;35.70;;;;;;5000722;28;20049;-73
2022/06/11 09:45:22;;;;;;;67.30;9.07;;;23.00;36.50;;;;;;5003084;28;20057;-73
2022/06/11 09:48:31;;;;;;;40.90;6.72;;;23.00;36.40;;;;;;4999991;28;20129;-73
2022/06/11 09:51:08;;;;;;;23.08;4.93;;;23.00;36.50;;;;;;4999859;28;20554;-74
2022/06/11 09:53:43;;;;;;;223.30;197.40;;;22.90;36.50;;;;;;5011420;28;20026;-72
2022/06/11 09:56:16;;;;;;;73.20;60.17;;;22.90;36.20;;;;;;4997084;28;20055;-72
2022/06/11 09:58:57;;;;;;;35.25;19.80;;;23.00;36.10;;;;;;5003656;28;20038;-71
2022/06/11 10:01:48;;;;;;;17.25;7.18;;;23.10;36.20;;;;;;5001364;28;20041;-71
2022/06/11 10:04:18;;;;;;;16.10;5.53;;;23.10;36.30;;;;;;5008031;28;20046;-72
2022/06/11 10:06:52;;;;;;;9.52;3.45;;;23.10;37.10;;;;;;5004791;28;20042;-75
2022/06/11 10:09:25;;;;;;;8.02;4.05;;;23.10;38.00;;;;;;4994403;28;20030;-72
2022/06/11 10:11:54;;;;;;;20.67;3.95;;;23.10;39.00;;;;;;5001501;28;20434;-72
2022/06/11 10:14:36;;;;;;;6.32;3.00;;;23.10;39.70;;;;;;5000407;28;20026;-72
2022/06/11 10:17:25;;;;;;;6.57;3.45;;;23.10;40.10;;;;;;5000957;28;20034;-71
2022/06/11 10:20:07;;;;;;;25.48;3.88;;;23.20;39.90;;;;;;5003492;28;20066;-72
2022/06/11 10:22:43;;;;;;;21.05;4.45;;;23.20;39.30;;;;;;5000090;28;20038;-73
2022/06/11 10:25:15;;;;;;;40.97;27.25;;;23.20;38.50;;;;;;4998178;28;20509;-70
2022/06/11 10:28:06;;;;;;;19.65;14.02;;;23.30;37.30;;;;;;5002494;28;20038;-69
2022/06/11 10:31:10;;;;;;;18.42;7.97;;;23.40;38.00;;;;;;4998120;28;20114;-71
2022/06/11 10:34:01;;;;;;;12.43;4.95;;;23.40;38.40;;;;;;5000269;28;20037;-71
2022/06/11 10:36:33;;;;;;;6.40;2.85;;;23.40;38.60;;;;;;4999970;28;20128;-72
2022/06/11 10:42:03;;;;;;;6.90;3.13;;;23.40;38.90;;;;;;1459565;26;20124;-70
2022/06/11 10:44:35;;;;;;;9.13;3.20;;;23.30;39.00;;;;;;5025187;28;20033;-69
2022/06/11 10:47:16;;;;;;;8.43;2.97;;;23.30;39.00;;;;;;5022975;28;20128;-68
2022/06/11 10:49:44;;;;;;;5.75;2.80;;;23.30;38.90;;;;;;5028560;28;20076;-69
2022/06/11 10:52:27;;;;;;;7.78;2.80;;;23.30;38.90;;;;;;5037737;28;20496;-70
2022/06/11 10:54:54;;;;;;;5.72;2.70;;;23.30;38.60;;;;;;5025937;28;20068;-69
2022/06/11 10:57:27;;;;;;;13.02;3.50;;;23.30;38.60;;;;;;5043343;28;20034;-69
2022/06/11 11:00:20;;;;;;;12.77;2.97;;;23.30;38.60;;;;;;5044355;28;20465;-68
2022/06/11 11:03:06;;;;;;;11.32;2.20;;;23.30;38.30;;;;;;5025691;28;20029;-67
2022/06/11 11:05:52;;;;;;;8.68;3.05;;;23.40;38.10;;;;;;5032282;28;20748;-69
2022/06/11 11:08:19;;;;;;;7.80;2.97;;;23.40;38.00;;;;;;5038633;28;20125;-70
2022/06/11 11:10:51;;;;;;;9.80;2.70;;;23.50;37.90;;;;;;5022763;28;20026;-67
2022/06/11 11:13:30;;;;;;;6.30;2.60;;;23.50;37.70;;;;;;5027447;28;20030;-69
2022/06/11 11:16:00;;;;;;;8.35;2.80;;;23.50;37.80;;;;;;5024289;28;20030;-69
2022/06/11 11:18:33;;;;;;;7.60;2.95;;;23.60;38.00;;;;;;5030532;27;20042;-70
2022/06/11 11:21:01;;;;;;;5.72;3.35;;;23.60;37.50;;;;;;5035699;27;20144;-69
2022/06/11 11:23:38;;;;;;;12.30;3.00;;;23.70;37.00;;;;;;5038541;27;20031;-67
2022/06/11 11:26:17;;;;;;;9.85;2.75;;;23.80;36.40;;;;;;5049113;27;20499;-67
2022/06/11 11:29:14;;;;;;;14.15;3.45;;;23.80;36.00;;;;;;5034328;27;20041;-68
2022/06/11 11:32:27;;;;;;;9.48;3.47;;;23.90;35.40;;;;;;5028766;27;20612;-67
2022/06/11 11:34:53;;;;;;;9.18;3.05;;;23.90;36.50;;;;;;5028022;27;20033;-66
2022/06/11 11:37:20;;;;;;;7.70;4.15;;;23.90;39.10;;;;;;5043616;27;20061;-69
2022/06/11 11:40:00;;;;;;;34.40;28.05;;;23.90;40.80;;;;;;5024353;27;20128;-70
2022/06/11 11:42:34;;;;;;;25.10;18.85;;;23.90;41.80;;;;;;5025762;27;20035;-68
2022/06/11 11:45:20;;;;;;;16.77;8.37;;;23.80;41.90;;;;;;5031754;27;20034;-68
2022/06/11 11:47:48;;;;;;;14.85;5.55;;;23.80;41.80;;;;;;5020137;27;20291;-68
2022/06/11 11:50:29;;;;;;;13.02;5.43;;;23.80;41.60;;;;;;5047399;27;20088;-66
2022/06/11 11:53:03;;;;;;;15.50;4.18;;;23.80;41.50;;;;;;5035112;27;20033;-68
2022/06/11 11:55:37;;;;;;;16.67;4.32;;;23.70;41.20;;;;;;5033667;27;20026;-69
2022/06/11 11:58:18;;;;;;;11.32;3.67;;;23.70;41.20;;;;;;5028079;27;20119;-67
2022/06/11 12:00:55;;;;;;;14.57;3.30;;;23.70;41.30;;;;;;5041171;27;20036;-68
2022/06/11 12:03:39;;;;;;;8.63;4.40;;;23.70;41.30;;;;;;5031517;27;20084;-68
2022/06/11 12:06:08;;;;;;;11.23;4.40;;;23.70;41.30;;;;;;5032001;27;20033;-67
2022/06/11 12:08:50;;;;;;;5.78;3.97;;;23.80;41.20;;;;;;5026468;27;20115;-68
2022/06/11 12:11:28;;;;;;;8.13;3.25;;;23.70;41.00;;;;;;5037298;27;20076;-67
2022/06/11 12:14:16;;;;;;;8.52;3.10;;;23.70;41.00;;;;;;5034023;27;20769;-68
2022/06/11 12:16:53;;;;;;;8.65;3.70;;;23.70;41.20;;;;;;5028785;27;20137;-68
2022/06/11 12:19:29;;;;;;;23.80;11.90;;;23.70;41.20;;;;;;5093618;27;20041;-69
2022/06/11 12:22:25;;;;;;;26.35;9.15;;;23.70;41.20;;;;;;5032516;27;20413;-68
2022/06/11 12:24:51;;;;;;;15.38;5.50;;;23.60;41.60;;;;;;5022716;28;20030;-68
2022/06/11 12:27:48;;;;;;;25.73;6.65;;;23.70;42.20;;;;;;5043079;27;20095;-67
2022/06/11 12:30:22;;;;;;;21.67;8.82;;;23.70;42.50;;;;;;5008333;27;20048;-70
2022/06/11 12:32:49;;;;;;;16.98;6.80;;;23.70;43.20;;;;;;5026279;27;20022;-67
2022/06/11 12:35:20;;;;;;;10.55;6.40;;;23.60;43.00;;;;;;5033050;27;20034;-67
2022/06/11 12:38:23;;;;;;;25.13;9.90;;;23.60;43.10;;;;;;5024394;27;20033;-68
2022/06/11 12:41:09;;;;;;;45.70;24.52;;;23.60;43.00;;;;;;5032180;27;20033;-67
2022/06/11 12:43:38;;;;;;;;;;;23.50;43.70;;;;;;5108021;28;20130;-67
2022/06/11 12:46:25;;;;;;;21.38;7.97;;;23.50;44.30;;;;;;5108006;28;19912;-66
2022/06/11 12:48:54;;;;;;;14.10;6.03;;;23.40;44.20;;;;;;5102897;28;20031;-68
2022/06/11 12:51:43;;;;;;;20.95;6.40;;;23.40;44.40;;;;;;5102433;28;20028;-69
2022/06/11 12:54:23;;;;;;;18.55;5.38;;;23.40;44.50;;;;;;5103123;28;20035;-68
2022/06/11 12:56:49;;;;;;;14.85;4.18;;;23.40;44.30;;;;;;5101809;28;20481;-68
2022/06/11 12:59:32;;;;;;;12.90;5.10;;;23.30;44.20;;;;;;5103142;28;20114;-68
2022/06/11 13:02:16;;;;;;;19.90;5.10;;;23.30;44.10;;;;;;5101596;28;20076;-69
2022/06/11 13:04:52;;;;;;;27.42;5.07;;;23.30;44.10;;;;;;5096305;28;20085;-70
2022/06/11 13:07:32;;;;;;;29.23;6.05;;;23.40;44.10;;;;;;5103573;28;20749;-68
2022/06/11 13:10:11;;;;;;;17.70;4.90;;;23.40;44.40;;;;;;5100177;28;20043;-67
2022/06/11 13:12:47;;;;;;;11.73;4.55;;;23.40;44.60;;;;;;5102117;28;20035;-67
2022/06/11 13:15:23;;;;;;;7.18;4.05;;;23.40;44.40;;;;;;5105602;28;20107;-67
2022/06/11 13:17:59;;;;;;;206.38;183.25;;;23.40;44.10;;;;;;5099871;28;20028;-67
2022/06/11 13:20:55;;;;;;;60.05;44.72;;;23.40;43.90;;;;;;5097799;28;20035;-67
2022/06/11 13:23:48;;;;;;;41.55;28.13;;;23.40;43.60;;;;;;5103888;28;20061;-67